createdAt,value
2017-03-08T00:00:23.415Z,0
2017-03-08T00:01:33.162Z,0
2017-03-08T00:02:42.501Z,0
2017-03-08T00:03:52.663Z,0
2017-03-08T00:05:02.807Z,0
2017-03-08T00:06:12.452Z,0
2017-03-08T00:07:22.207Z,0
2017-03-08T00:08:31.121Z,0
2017-03-08T00:09:40.480Z,0
2017-03-08T00:10:49.839Z,0
2017-03-08T00:11:59.315Z,0
2017-03-08T00:13:08.671Z,0
2017-03-08T00:14:18.826Z,0
2017-03-08T00:15:28.161Z,0
2017-03-08T00:16:37.530Z,0
2017-03-08T00:17:47.721Z,0
2017-03-08T00:18:57.044Z,0
2017-03-08T00:20:07.206Z,0
2017-03-08T00:21:16.932Z,0
2017-03-08T00:22:26.276Z,0
2017-03-08T00:23:35.790Z,0
2017-03-08T00:24:45.531Z,0
2017-03-08T00:25:55.273Z,0
2017-03-08T00:27:05.022Z,0
2017-03-08T00:28:15.576Z,0
2017-03-08T00:29:25.076Z,0
2017-03-08T00:30:35.234Z,0
2017-03-08T00:31:44.164Z,0
2017-03-08T00:32:53.889Z,0
2017-03-08T00:34:03.219Z,0
2017-03-08T00:35:12.396Z,0
2017-03-08T00:36:21.332Z,0
2017-03-08T00:37:30.658Z,0
2017-03-08T00:38:40.791Z,0
2017-03-08T00:39:50.123Z,0
2017-03-08T00:40:59.912Z,0
2017-03-08T00:42:09.236Z,0
2017-03-08T00:43:18.568Z,0
2017-03-08T00:44:28.364Z,0
2017-03-08T00:45:37.280Z,0
2017-03-08T00:46:47.273Z,0
2017-03-08T00:47:56.191Z,0
2017-03-08T00:49:05.526Z,0
2017-03-08T00:50:15.681Z,0
2017-03-08T00:51:25.419Z,0
2017-03-08T00:52:35.601Z,0
2017-03-08T00:53:44.550Z,0
2017-03-08T00:54:54.309Z,0
2017-03-08T00:56:03.219Z,0
2017-03-08T00:57:12.957Z,0
2017-03-08T00:58:22.588Z,0
2017-03-08T00:59:32.321Z,0
2017-03-08T01:00:42.061Z,0
2017-03-08T01:01:52.211Z,0
2017-03-08T01:03:01.954Z,0
2017-03-08T01:04:11.742Z,0
2017-03-08T01:05:21.491Z,0
2017-03-08T01:06:31.228Z,0
2017-03-08T01:07:40.555Z,0
2017-03-08T01:08:50.697Z,0
2017-03-08T01:10:00.220Z,0
2017-03-08T01:11:09.956Z,0
2017-03-08T01:12:19.291Z,0
2017-03-08T01:13:28.618Z,0
2017-03-08T01:14:38.804Z,0
2017-03-08T01:15:48.125Z,0
2017-03-08T01:16:57.449Z,0
2017-03-08T01:18:06.779Z,0
2017-03-08T01:19:16.532Z,0
2017-03-08T01:20:26.268Z,0
2017-03-08T01:21:35.893Z,0
2017-03-08T01:22:45.628Z,0
2017-03-08T01:23:55.767Z,0
2017-03-08T01:25:05.118Z,0
2017-03-08T01:26:15.681Z,0
2017-03-08T01:27:24.741Z,0
2017-03-08T01:28:33.657Z,0
2017-03-08T01:29:43.385Z,0
2017-03-08T01:30:53.122Z,0
2017-03-08T01:32:03.259Z,0
2017-03-08T01:33:12.793Z,0
2017-03-08T01:34:21.710Z,0
2017-03-08T01:35:30.637Z,0
2017-03-08T01:36:40.383Z,0
2017-03-08T01:37:50.118Z,0
2017-03-08T01:38:59.031Z,0
2017-03-08T01:40:08.789Z,0
2017-03-08T01:41:19.190Z,0
2017-03-08T01:42:28.538Z,0
2017-03-08T01:43:37.864Z,0
2017-03-08T01:44:47.657Z,0
2017-03-08T01:45:57.001Z,0
2017-03-08T01:47:06.754Z,0
2017-03-08T01:48:16.895Z,0
2017-03-08T01:49:26.242Z,0
2017-03-08T01:50:35.715Z,0
2017-03-08T01:51:45.440Z,0
2017-03-08T01:52:54.768Z,0
2017-03-08T01:54:04.088Z,0
2017-03-08T01:55:13.412Z,0
2017-03-08T01:56:23.005Z,0
2017-03-08T01:57:33.161Z,0
2017-03-08T01:58:42.103Z,0
2017-03-08T01:59:52.256Z,0
2017-03-08T02:01:01.179Z,0
2017-03-08T02:02:10.645Z,0
2017-03-08T02:03:19.963Z,0
2017-03-08T02:04:30.144Z,0
2017-03-08T02:05:39.054Z,0
2017-03-08T02:06:48.368Z,0
2017-03-08T02:07:58.143Z,0
2017-03-08T02:09:07.866Z,0
2017-03-08T02:10:17.195Z,0
2017-03-08T02:11:26.934Z,0
2017-03-08T02:12:36.693Z,0
2017-03-08T02:13:46.976Z,0
2017-03-08T02:14:56.301Z,0
2017-03-08T02:16:05.645Z,0
2017-03-08T02:17:15.379Z,0
2017-03-08T02:18:24.704Z,0
2017-03-08T02:19:34.191Z,0
2017-03-08T02:20:43.527Z,0
2017-03-08T02:21:53.255Z,0
2017-03-08T02:23:02.981Z,0
2017-03-08T02:24:12.295Z,0
2017-03-08T02:25:22.091Z,0
2017-03-08T02:26:31.496Z,0
2017-03-08T02:27:41.236Z,0
2017-03-08T02:28:50.160Z,0
2017-03-08T02:29:59.903Z,0
2017-03-08T02:31:09.476Z,0
2017-03-08T02:32:20.034Z,0
2017-03-08T02:33:29.382Z,0
2017-03-08T02:34:39.130Z,0
2017-03-08T02:35:48.857Z,0
2017-03-08T02:36:59.170Z,0
2017-03-08T02:38:08.492Z,0
2017-03-08T02:39:18.223Z,0
2017-03-08T02:40:28.386Z,0
2017-03-08T02:41:38.134Z,0
2017-03-08T02:42:47.131Z,0
2017-03-08T02:43:56.480Z,0
2017-03-08T02:45:06.617Z,0
2017-03-08T02:46:16.349Z,0
2017-03-08T02:47:25.691Z,0
2017-03-08T02:48:35.579Z,0
2017-03-08T02:49:45.299Z,0
2017-03-08T02:50:55.063Z,0
2017-03-08T02:52:04.827Z,0
2017-03-08T02:53:14.154Z,0
2017-03-08T02:54:23.943Z,0
2017-03-08T02:55:33.279Z,0
2017-03-08T02:56:43.025Z,0
2017-03-08T02:57:52.789Z,0
2017-03-08T02:59:02.117Z,0
2017-03-08T03:00:11.997Z,0
2017-03-08T03:01:21.332Z,0
2017-03-08T03:02:30.661Z,0
2017-03-08T03:03:40.397Z,0
2017-03-08T03:04:49.726Z,0
2017-03-08T03:05:59.622Z,0
2017-03-08T03:07:08.959Z,0
2017-03-08T03:08:18.698Z,0
2017-03-08T03:09:28.437Z,0
2017-03-08T03:10:37.789Z,0
2017-03-08T03:11:47.241Z,0
2017-03-08T03:12:56.569Z,0
2017-03-08T03:14:05.887Z,0
2017-03-08T03:15:15.626Z,0
2017-03-08T03:16:25.352Z,0
2017-03-08T03:17:34.940Z,0
2017-03-08T03:18:44.270Z,0
2017-03-08T03:19:54.021Z,0
2017-03-08T03:21:03.340Z,0
2017-03-08T03:22:12.659Z,0
2017-03-08T03:23:21.889Z,0
2017-03-08T03:24:31.214Z,0
2017-03-08T03:25:40.130Z,0
2017-03-08T03:26:49.854Z,0
2017-03-08T03:28:00.013Z,0
2017-03-08T03:29:09.091Z,0
2017-03-08T03:30:19.245Z,0
2017-03-08T03:31:28.155Z,0
2017-03-08T03:32:37.898Z,0
2017-03-08T03:33:47.245Z,0
2017-03-08T03:34:56.677Z,0
2017-03-08T03:36:06.012Z,0
2017-03-08T03:37:16.172Z,0
2017-03-08T03:38:25.114Z,0
2017-03-08T03:39:34.045Z,0
2017-03-08T03:40:43.015Z,0
2017-03-08T03:41:52.339Z,0
2017-03-08T03:43:02.063Z,0
2017-03-08T03:44:11.398Z,0
2017-03-08T03:45:20.761Z,0
2017-03-08T03:46:29.821Z,0
2017-03-08T03:47:39.974Z,0
2017-03-08T03:48:50.106Z,0
2017-03-08T03:49:59.834Z,0
2017-03-08T03:51:09.586Z,0
2017-03-08T03:52:19.876Z,0
2017-03-08T03:53:29.625Z,0
2017-03-08T03:54:39.774Z,0
2017-03-08T03:55:49.100Z,0
2017-03-08T03:56:58.851Z,0
2017-03-08T03:58:08.368Z,0
2017-03-08T03:59:17.706Z,0
2017-03-08T04:00:27.026Z,0
2017-03-08T04:01:36.343Z,0
2017-03-08T04:02:46.106Z,0
2017-03-08T04:03:55.028Z,0
2017-03-08T04:05:04.359Z,0
2017-03-08T04:06:14.904Z,0
2017-03-08T04:07:24.631Z,0
2017-03-08T04:08:33.993Z,0
2017-03-08T04:09:44.323Z,0
2017-03-08T04:10:54.068Z,0
2017-03-08T04:12:03.393Z,0
2017-03-08T04:13:13.124Z,0
2017-03-08T04:14:22.439Z,0
2017-03-08T04:15:32.329Z,0
2017-03-08T04:16:42.049Z,0
2017-03-08T04:17:53.013Z,0
2017-03-08T04:19:02.774Z,0
2017-03-08T04:20:12.512Z,0
2017-03-08T04:21:22.448Z,0
2017-03-08T04:22:31.781Z,0
2017-03-08T04:23:40.696Z,0
2017-03-08T04:24:50.421Z,0
2017-03-08T04:25:59.755Z,0
2017-03-08T04:27:09.636Z,0
2017-03-08T04:28:18.965Z,0
2017-03-08T04:29:27.924Z,0
2017-03-08T04:30:37.252Z,0
2017-03-08T04:31:46.604Z,0
2017-03-08T04:32:55.618Z,0
2017-03-08T04:34:04.574Z,0
2017-03-08T04:35:13.903Z,0
2017-03-08T04:36:23.238Z,0
2017-03-08T04:37:32.596Z,0
2017-03-08T04:38:43.316Z,0
2017-03-08T04:39:52.656Z,0
2017-03-08T04:41:02.023Z,0
2017-03-08T04:42:12.167Z,0
2017-03-08T04:43:21.908Z,0
2017-03-08T04:44:32.129Z,0
2017-03-08T04:45:42.274Z,0
2017-03-08T04:46:52.004Z,0
2017-03-08T04:48:00.919Z,0
2017-03-08T04:49:10.657Z,0
2017-03-08T04:50:20.141Z,0
2017-03-08T04:51:29.067Z,0
2017-03-08T04:52:37.997Z,0
2017-03-08T04:53:47.725Z,0
2017-03-08T04:54:57.065Z,0
2017-03-08T04:56:06.950Z,0
2017-03-08T04:57:16.705Z,0
2017-03-08T04:58:26.433Z,0
2017-03-08T04:59:36.157Z,0
2017-03-08T05:00:45.515Z,0
2017-03-08T05:01:54.649Z,0
2017-03-08T05:03:04.391Z,0
2017-03-08T05:04:13.721Z,0
2017-03-08T05:05:23.051Z,0
2017-03-08T05:06:31.958Z,0
2017-03-08T05:07:41.752Z,0
2017-03-08T05:08:51.089Z,0
2017-03-08T05:10:00.830Z,0
2017-03-08T05:11:10.150Z,0
2017-03-08T05:12:19.071Z,0
2017-03-08T05:13:28.453Z,0
2017-03-08T05:14:37.360Z,0
2017-03-08T05:15:47.081Z,0
2017-03-08T05:16:56.014Z,0
2017-03-08T05:18:05.737Z,0
2017-03-08T05:19:15.635Z,0
2017-03-08T05:20:24.981Z,0
2017-03-08T05:21:33.906Z,0
2017-03-08T05:22:43.234Z,0
2017-03-08T05:23:52.560Z,0
2017-03-08T05:25:02.612Z,0
2017-03-08T05:26:11.929Z,0
2017-03-08T05:27:21.254Z,0
2017-03-08T05:28:30.170Z,0
2017-03-08T05:29:39.898Z,0
2017-03-08T05:30:49.293Z,0
2017-03-08T05:31:59.032Z,0
2017-03-08T05:33:07.955Z,0
2017-03-08T05:34:16.864Z,0
2017-03-08T05:35:26.183Z,0
2017-03-08T05:36:36.080Z,0
2017-03-08T05:37:46.237Z,0
2017-03-08T05:38:55.959Z,0
2017-03-08T05:40:05.705Z,0
2017-03-08T05:41:15.860Z,0
2017-03-08T05:42:25.848Z,0
2017-03-08T05:43:35.191Z,0
2017-03-08T05:44:45.333Z,0
2017-03-08T05:45:55.066Z,0
2017-03-08T05:47:04.407Z,5
2017-03-08T05:48:13.889Z,5
2017-03-08T05:49:24.045Z,5
2017-03-08T05:50:34.222Z,5
2017-03-08T05:51:43.564Z,5
2017-03-08T05:52:52.955Z,5
2017-03-08T05:54:02.998Z,5
2017-03-08T05:55:12.756Z,5
2017-03-08T05:56:22.136Z,10
2017-03-08T05:57:31.073Z,10
2017-03-08T05:58:41.639Z,10
2017-03-08T05:59:50.578Z,10
2017-03-08T06:00:59.917Z,10
2017-03-08T06:02:09.258Z,10
2017-03-08T06:03:19.018Z,10
2017-03-08T06:04:28.358Z,10
2017-03-08T06:05:37.675Z,10
2017-03-08T06:06:47.828Z,15
2017-03-08T06:07:57.179Z,15
2017-03-08T06:09:06.532Z,15
2017-03-08T06:10:15.873Z,15
2017-03-08T06:11:25.199Z,15
2017-03-08T06:12:34.115Z,15
2017-03-08T06:13:43.842Z,15
2017-03-08T06:14:53.587Z,20
2017-03-08T06:16:02.930Z,20
2017-03-08T06:17:11.851Z,20
2017-03-08T06:18:21.173Z,25
2017-03-08T06:19:30.610Z,25
2017-03-08T06:20:39.549Z,25
2017-03-08T06:21:48.494Z,25
2017-03-08T06:22:57.823Z,25
2017-03-08T06:24:07.170Z,25
2017-03-08T06:25:16.978Z,25
2017-03-08T06:26:26.719Z,30
2017-03-08T06:27:36.467Z,30
2017-03-08T06:28:45.813Z,35
2017-03-08T06:29:54.731Z,35
2017-03-08T06:31:04.375Z,30
2017-03-08T06:32:13.298Z,30
2017-03-08T06:33:23.439Z,30
2017-03-08T06:34:33.579Z,30
2017-03-08T06:35:42.896Z,30
2017-03-08T06:36:52.287Z,30
2017-03-08T06:38:01.619Z,35
2017-03-08T06:39:11.372Z,35
2017-03-08T06:40:20.720Z,35
2017-03-08T06:41:30.050Z,35
2017-03-08T06:42:39.780Z,40
2017-03-08T06:43:49.916Z,40
2017-03-08T06:44:59.253Z,40
2017-03-08T06:46:08.582Z,40
2017-03-08T06:47:17.915Z,40
2017-03-08T06:48:27.897Z,40
2017-03-08T06:49:37.645Z,40
2017-03-08T06:50:46.988Z,40
2017-03-08T06:51:55.913Z,40
2017-03-08T06:53:05.644Z,45
2017-03-08T06:54:15.519Z,45
2017-03-08T06:55:24.846Z,45
2017-03-08T06:56:34.206Z,45
2017-03-08T06:57:43.937Z,50
2017-03-08T06:58:53.264Z,55
2017-03-08T07:00:03.436Z,60
2017-03-08T07:01:13.188Z,65
2017-03-08T07:02:22.542Z,70
2017-03-08T07:03:31.893Z,70
2017-03-08T07:04:41.228Z,70
2017-03-08T07:05:50.150Z,75
2017-03-08T07:06:59.896Z,80
2017-03-08T07:08:10.460Z,85
2017-03-08T07:09:20.203Z,100
2017-03-08T07:10:29.943Z,110
2017-03-08T07:11:40.082Z,120
2017-03-08T07:12:48.993Z,130
2017-03-08T07:13:58.330Z,140
2017-03-08T07:15:07.656Z,145
2017-03-08T07:16:16.980Z,140
2017-03-08T07:17:25.903Z,130
2017-03-08T07:18:36.440Z,120
2017-03-08T07:19:46.200Z,115
2017-03-08T07:20:55.950Z,110
2017-03-08T07:22:05.707Z,105
2017-03-08T07:23:15.458Z,100
2017-03-08T07:24:24.792Z,100
2017-03-08T07:25:34.953Z,105
2017-03-08T07:26:44.290Z,110
2017-03-08T07:27:53.615Z,120
2017-03-08T07:29:02.939Z,120
2017-03-08T07:30:13.095Z,120
2017-03-08T07:31:22.992Z,115
2017-03-08T07:32:32.720Z,105
2017-03-08T07:33:42.882Z,100
2017-03-08T07:34:52.619Z,100
2017-03-08T07:36:02.375Z,110
2017-03-08T07:37:12.671Z,110
2017-03-08T07:38:22.413Z,105
2017-03-08T07:39:31.762Z,100
2017-03-08T07:40:41.490Z,95
2017-03-08T07:41:51.234Z,90
2017-03-08T07:43:00.321Z,100
2017-03-08T07:44:10.058Z,100
2017-03-08T07:45:19.792Z,110
2017-03-08T07:46:28.721Z,125
2017-03-08T07:47:38.879Z,140
2017-03-08T07:48:48.773Z,140
2017-03-08T07:49:58.125Z,145
2017-03-08T07:51:07.046Z,140
2017-03-08T07:52:15.963Z,140
2017-03-08T07:53:24.904Z,130
2017-03-08T07:54:34.373Z,120
2017-03-08T07:55:43.292Z,105
2017-03-08T07:56:52.625Z,95
2017-03-08T07:58:01.558Z,100
2017-03-08T07:59:11.299Z,95
2017-03-08T08:00:20.387Z,90
2017-03-08T08:01:29.723Z,85
2017-03-08T08:02:39.060Z,80
2017-03-08T08:03:47.984Z,85
2017-03-08T08:04:57.319Z,90
2017-03-08T08:06:06.398Z,115
2017-03-08T08:07:16.563Z,140
2017-03-08T08:08:25.890Z,165
2017-03-08T08:09:35.217Z,175
2017-03-08T08:10:44.542Z,175
2017-03-08T08:11:54.379Z,165
2017-03-08T08:13:04.108Z,165
2017-03-08T08:14:13.856Z,155
2017-03-08T08:15:23.194Z,155
2017-03-08T08:16:32.117Z,155
2017-03-08T08:17:41.924Z,160
2017-03-08T08:18:51.660Z,160
2017-03-08T08:20:00.991Z,160
2017-03-08T08:21:10.745Z,160
2017-03-08T08:22:20.479Z,165
2017-03-08T08:23:29.874Z,175
2017-03-08T08:24:39.601Z,180
2017-03-08T08:25:49.740Z,180
2017-03-08T08:26:59.481Z,185
2017-03-08T08:28:08.407Z,185
2017-03-08T08:29:18.251Z,185
2017-03-08T08:30:27.617Z,190
2017-03-08T08:31:36.980Z,195
2017-03-08T08:32:46.728Z,200
2017-03-08T08:33:56.058Z,195
2017-03-08T08:35:06.347Z,195
2017-03-08T08:36:15.255Z,195
2017-03-08T08:37:24.622Z,200
2017-03-08T08:38:33.543Z,190
2017-03-08T08:39:42.468Z,175
2017-03-08T08:40:52.708Z,165
2017-03-08T08:42:01.629Z,155
2017-03-08T08:43:11.356Z,155
2017-03-08T08:44:21.500Z,145
2017-03-08T08:45:31.664Z,140
2017-03-08T08:46:41.918Z,140
2017-03-08T08:47:51.243Z,150
2017-03-08T08:49:01.004Z,155
2017-03-08T08:50:09.957Z,165
2017-03-08T08:51:19.293Z,175
2017-03-08T08:52:28.472Z,185
2017-03-08T08:53:37.790Z,195
2017-03-08T08:54:46.732Z,200
2017-03-08T08:55:55.668Z,210
2017-03-08T08:57:05.018Z,220
2017-03-08T08:58:15.046Z,225
2017-03-08T08:59:23.992Z,235
2017-03-08T09:00:34.157Z,250
2017-03-08T09:01:43.488Z,255
2017-03-08T09:02:52.807Z,255
2017-03-08T09:04:02.133Z,270
2017-03-08T09:05:11.464Z,275
2017-03-08T09:06:20.797Z,285
2017-03-08T09:07:30.123Z,305
2017-03-08T09:08:39.861Z,310
2017-03-08T09:09:48.907Z,305
2017-03-08T09:10:58.252Z,305
2017-03-08T09:12:08.040Z,310
2017-03-08T09:13:17.798Z,320
2017-03-08T09:14:27.550Z,335
2017-03-08T09:15:37.134Z,330
2017-03-08T09:16:46.459Z,315
2017-03-08T09:17:55.406Z,325
2017-03-08T09:19:05.153Z,320
2017-03-08T09:20:14.902Z,340
2017-03-08T09:21:24.792Z,340
2017-03-08T09:22:34.532Z,360
2017-03-08T09:23:44.286Z,375
2017-03-08T09:24:54.033Z,365
2017-03-08T09:26:04.219Z,340
2017-03-08T09:27:14.024Z,335
2017-03-08T09:28:23.365Z,330
2017-03-08T09:29:33.117Z,340
2017-03-08T09:30:42.870Z,350
2017-03-08T09:31:52.607Z,365
2017-03-08T09:33:02.158Z,380
2017-03-08T09:34:12.724Z,390
2017-03-08T09:35:21.666Z,410
2017-03-08T09:36:30.997Z,395
2017-03-08T09:37:41.143Z,375
2017-03-08T09:38:50.920Z,370
2017-03-08T09:40:00.664Z,385
2017-03-08T09:41:10.803Z,385
2017-03-08T09:42:19.749Z,385
2017-03-08T09:43:29.483Z,400
2017-03-08T09:44:38.707Z,385
2017-03-08T09:45:47.638Z,370
2017-03-08T09:46:57.382Z,385
2017-03-08T09:48:07.121Z,380
2017-03-08T09:49:16.040Z,385
2017-03-08T09:50:25.615Z,390
2017-03-08T09:51:34.943Z,370
2017-03-08T09:52:44.698Z,365
2017-03-08T09:53:54.454Z,360
2017-03-08T09:55:04.226Z,345
2017-03-08T09:56:13.317Z,350
2017-03-08T09:57:22.656Z,345
2017-03-08T09:58:32.393Z,345
2017-03-08T09:59:41.316Z,345
2017-03-08T10:00:51.072Z,340
2017-03-08T10:02:00.569Z,335
2017-03-08T10:03:10.323Z,335
2017-03-08T10:04:20.053Z,340
2017-03-08T10:05:29.379Z,340
2017-03-08T10:06:39.125Z,355
2017-03-08T10:07:49.430Z,375
2017-03-08T10:08:59.179Z,385
2017-03-08T10:10:08.236Z,390
2017-03-08T10:11:18.381Z,410
2017-03-08T10:12:27.722Z,425
2017-03-08T10:13:37.612Z,445
2017-03-08T10:14:46.959Z,445
2017-03-08T10:15:56.712Z,450
2017-03-08T10:17:06.453Z,450
2017-03-08T10:18:15.410Z,440
2017-03-08T10:19:25.622Z,425
2017-03-08T10:20:34.956Z,425
2017-03-08T10:21:43.869Z,425
2017-03-08T10:22:53.227Z,425
2017-03-08T10:24:02.554Z,420
2017-03-08T10:25:12.747Z,415
2017-03-08T10:26:22.088Z,425
2017-03-08T10:27:32.242Z,425
2017-03-08T10:28:41.583Z,430
2017-03-08T10:29:51.330Z,440
2017-03-08T10:31:00.817Z,440
2017-03-08T10:32:10.159Z,445
2017-03-08T10:33:19.505Z,465
2017-03-08T10:34:28.867Z,475
2017-03-08T10:35:38.227Z,470
2017-03-08T10:36:47.398Z,460
2017-03-08T10:37:56.320Z,455
2017-03-08T10:39:05.650Z,465
2017-03-08T10:40:14.583Z,465
2017-03-08T10:41:23.922Z,460
2017-03-08T10:42:32.965Z,465
2017-03-08T10:43:42.318Z,465
2017-03-08T10:44:51.648Z,445
2017-03-08T10:46:00.585Z,395
2017-03-08T10:47:10.355Z,345
2017-03-08T10:48:20.244Z,335
2017-03-08T10:49:29.585Z,340
2017-03-08T10:50:39.314Z,345
2017-03-08T10:51:49.074Z,355
2017-03-08T10:52:57.985Z,360
2017-03-08T10:54:07.074Z,375
2017-03-08T10:55:15.987Z,380
2017-03-08T10:56:25.317Z,385
2017-03-08T10:57:35.090Z,410
2017-03-08T10:58:45.259Z,450
2017-03-08T10:59:55.711Z,500
2017-03-08T11:01:06.753Z,515
2017-03-08T11:02:15.672Z,515
2017-03-08T11:03:25.015Z,515
2017-03-08T11:04:34.763Z,520
2017-03-08T11:05:44.965Z,500
2017-03-08T11:06:55.129Z,490
2017-03-08T11:08:05.715Z,515
2017-03-08T11:09:15.881Z,525
2017-03-08T11:10:25.275Z,525
2017-03-08T11:11:35.471Z,520
2017-03-08T11:12:44.803Z,520
2017-03-08T11:13:55.357Z,515
2017-03-08T11:15:05.508Z,520
2017-03-08T11:16:15.247Z,550
2017-03-08T11:17:24.643Z,555
2017-03-08T11:18:35.193Z,555
2017-03-08T11:19:45.341Z,550
2017-03-08T11:20:55.484Z,555
2017-03-08T11:22:06.043Z,565
2017-03-08T11:23:16.050Z,560
2017-03-08T11:24:26.188Z,525
2017-03-08T11:25:35.961Z,495
2017-03-08T11:26:46.102Z,470
2017-03-08T11:27:55.421Z,460
2017-03-08T11:29:05.242Z,445
2017-03-08T11:30:15.808Z,435
2017-03-08T11:31:25.137Z,410
2017-03-08T11:32:34.889Z,370
2017-03-08T11:33:45.036Z,315
2017-03-08T11:34:55.185Z,275
2017-03-08T11:36:04.948Z,270
2017-03-08T11:37:14.692Z,270
2017-03-08T11:38:24.841Z,290
2017-03-08T11:39:34.998Z,320
2017-03-08T11:40:44.419Z,325
2017-03-08T11:41:53.747Z,335
2017-03-08T11:43:03.480Z,340
2017-03-08T11:44:12.804Z,320
2017-03-08T11:45:22.147Z,290
2017-03-08T11:46:32.025Z,280
2017-03-08T11:47:40.933Z,280
2017-03-08T11:48:50.276Z,295
2017-03-08T11:50:00.024Z,285
2017-03-08T11:51:09.350Z,255
2017-03-08T11:52:18.741Z,225
2017-03-08T11:53:28.060Z,220
2017-03-08T11:54:37.389Z,220
2017-03-08T11:55:47.126Z,230
2017-03-08T11:56:57.266Z,245
2017-03-08T11:58:06.453Z,270
2017-03-08T11:59:16.231Z,295
2017-03-08T12:00:26.373Z,325
2017-03-08T12:01:36.116Z,345
2017-03-08T12:02:45.449Z,350
2017-03-08T12:03:54.845Z,340
2017-03-08T12:05:04.172Z,330
2017-03-08T12:06:13.500Z,310
2017-03-08T12:07:23.227Z,305
2017-03-08T12:08:32.168Z,300
2017-03-08T12:09:41.652Z,285
2017-03-08T12:10:51.789Z,275
2017-03-08T12:12:01.132Z,275
2017-03-08T12:13:10.885Z,280
2017-03-08T12:14:20.234Z,280
2017-03-08T12:15:29.722Z,265
2017-03-08T12:16:39.464Z,260
2017-03-08T12:17:49.196Z,250
2017-03-08T12:18:59.336Z,240
2017-03-08T12:20:09.069Z,215
2017-03-08T12:21:18.589Z,235
2017-03-08T12:22:27.967Z,245
2017-03-08T12:23:37.310Z,270
2017-03-08T12:24:47.032Z,265
2017-03-08T12:25:57.581Z,250
2017-03-08T12:27:07.564Z,240
2017-03-08T12:28:17.716Z,265
2017-03-08T12:29:27.441Z,285
2017-03-08T12:30:36.362Z,255
2017-03-08T12:31:45.281Z,275
2017-03-08T12:32:54.753Z,285
2017-03-08T12:34:04.489Z,300
2017-03-08T12:35:13.396Z,270
2017-03-08T12:36:23.942Z,285
2017-03-08T12:37:33.667Z,280
2017-03-08T12:38:43.749Z,260
2017-03-08T12:39:53.494Z,220
2017-03-08T12:41:02.416Z,250
2017-03-08T12:42:11.736Z,265
2017-03-08T12:43:21.051Z,270
2017-03-08T12:44:31.047Z,265
2017-03-08T12:45:39.981Z,210
2017-03-08T12:46:49.298Z,180
2017-03-08T12:47:58.662Z,175
2017-03-08T12:49:08.000Z,205
2017-03-08T12:50:17.659Z,205
2017-03-08T12:51:27.412Z,185
2017-03-08T12:52:37.581Z,205
2017-03-08T12:53:46.489Z,175
2017-03-08T12:54:56.220Z,190
2017-03-08T12:56:05.995Z,195
2017-03-08T12:57:16.147Z,190
2017-03-08T12:58:25.468Z,200
2017-03-08T12:59:34.807Z,190
2017-03-08T13:00:44.543Z,185
2017-03-08T13:01:53.527Z,190
2017-03-08T13:03:03.661Z,185
2017-03-08T13:04:12.584Z,210
2017-03-08T13:05:21.511Z,220
2017-03-08T13:06:30.849Z,255
2017-03-08T13:07:40.760Z,290
2017-03-08T13:08:50.509Z,320
2017-03-08T13:10:00.250Z,315
2017-03-08T13:11:10.001Z,280
2017-03-08T13:12:20.132Z,260
2017-03-08T13:13:29.537Z,215
2017-03-08T13:14:39.274Z,180
2017-03-08T13:15:49.001Z,170
2017-03-08T13:16:58.757Z,155
2017-03-08T13:18:07.673Z,160
2017-03-08T13:19:17.552Z,150
2017-03-08T13:20:26.873Z,140
2017-03-08T13:21:36.597Z,135
2017-03-08T13:22:45.943Z,125
2017-03-08T13:23:56.142Z,105
2017-03-08T13:25:05.328Z,95
2017-03-08T13:26:15.080Z,90
2017-03-08T13:27:24.421Z,80
2017-03-08T13:28:34.162Z,80
2017-03-08T13:29:43.903Z,95
2017-03-08T13:30:53.506Z,100
2017-03-08T13:32:02.841Z,100
2017-03-08T13:33:12.589Z,105
2017-03-08T13:34:21.915Z,115
2017-03-08T13:35:31.269Z,135
2017-03-08T13:36:41.160Z,155
2017-03-08T13:37:50.883Z,140
2017-03-08T13:39:01.028Z,155
2017-03-08T13:40:10.343Z,135
2017-03-08T13:41:19.674Z,140
2017-03-08T13:42:29.586Z,150
2017-03-08T13:43:38.927Z,155
2017-03-08T13:44:47.838Z,160
2017-03-08T13:45:56.768Z,130
2017-03-08T13:47:05.680Z,125
2017-03-08T13:48:15.066Z,140
2017-03-08T13:49:24.375Z,135
2017-03-08T13:50:33.694Z,135
2017-03-08T13:51:43.012Z,160
2017-03-08T13:52:51.914Z,175
2017-03-08T13:54:00.879Z,165
2017-03-08T13:55:10.623Z,190
2017-03-08T13:56:19.965Z,165
2017-03-08T13:57:29.723Z,145
2017-03-08T13:58:39.447Z,165
2017-03-08T13:59:48.509Z,160
2017-03-08T14:00:57.827Z,165
2017-03-08T14:02:07.555Z,145
2017-03-08T14:03:16.893Z,130
2017-03-08T14:04:26.215Z,130
2017-03-08T14:05:35.182Z,130
2017-03-08T14:06:44.092Z,140
2017-03-08T14:07:53.027Z,140
2017-03-08T14:09:02.378Z,125
2017-03-08T14:10:11.713Z,120
2017-03-08T14:11:20.879Z,115
2017-03-08T14:12:30.617Z,115
2017-03-08T14:13:39.955Z,115
2017-03-08T14:14:49.280Z,110
2017-03-08T14:15:59.008Z,100
2017-03-08T14:17:07.945Z,95
2017-03-08T14:18:17.299Z,100
2017-03-08T14:19:27.436Z,95
2017-03-08T14:20:37.227Z,95
2017-03-08T14:21:46.964Z,95
2017-03-08T14:22:56.291Z,85
2017-03-08T14:24:06.444Z,80
2017-03-08T14:25:15.770Z,75
2017-03-08T14:26:25.088Z,75
2017-03-08T14:27:34.823Z,70
2017-03-08T14:28:43.739Z,65
2017-03-08T14:29:53.067Z,65
2017-03-08T14:31:02.798Z,65
2017-03-08T14:32:11.714Z,65
2017-03-08T14:33:21.481Z,60
2017-03-08T14:34:30.818Z,55
2017-03-08T14:35:40.172Z,55
2017-03-08T14:36:49.119Z,55
2017-03-08T14:37:58.849Z,55
2017-03-08T14:39:08.166Z,55
2017-03-08T14:40:17.476Z,50
2017-03-08T14:41:27.603Z,55
2017-03-08T14:42:37.095Z,55
2017-03-08T14:43:46.836Z,55
2017-03-08T14:44:56.172Z,55
2017-03-08T14:46:05.919Z,50
2017-03-08T14:47:15.653Z,55
2017-03-08T14:48:25.368Z,50
2017-03-08T14:49:35.119Z,45
2017-03-08T14:50:44.464Z,40
2017-03-08T14:51:53.793Z,40
2017-03-08T14:53:03.530Z,40
2017-03-08T14:54:12.697Z,40
2017-03-08T14:55:22.429Z,40
2017-03-08T14:56:32.184Z,40
2017-03-08T14:57:41.930Z,35
2017-03-08T14:58:50.864Z,40
2017-03-08T15:00:01.064Z,40
2017-03-08T15:01:10.789Z,40
2017-03-08T15:02:20.516Z,30
2017-03-08T15:03:29.842Z,30
2017-03-08T15:04:39.628Z,30
2017-03-08T15:05:48.997Z,25
2017-03-08T15:06:58.736Z,25
2017-03-08T15:08:08.051Z,25
2017-03-08T15:09:17.790Z,25
2017-03-08T15:10:27.109Z,25
2017-03-08T15:11:37.407Z,30
2017-03-08T15:12:47.154Z,25
2017-03-08T15:13:56.481Z,20
2017-03-08T15:15:06.217Z,25
2017-03-08T15:16:15.951Z,20
2017-03-08T15:17:25.260Z,20
2017-03-08T15:18:34.584Z,20
2017-03-08T15:19:44.312Z,20
2017-03-08T15:20:54.032Z,20
2017-03-08T15:22:03.357Z,20
2017-03-08T15:23:12.834Z,20
2017-03-08T15:24:22.152Z,20
2017-03-08T15:25:31.473Z,20
2017-03-08T15:26:40.790Z,25
2017-03-08T15:27:50.119Z,20
2017-03-08T15:28:59.405Z,20
2017-03-08T15:30:09.134Z,20
2017-03-08T15:31:18.451Z,20
2017-03-08T15:32:29.004Z,20
2017-03-08T15:33:39.139Z,15
2017-03-08T15:34:49.012Z,15
2017-03-08T15:35:58.351Z,20
2017-03-08T15:37:08.076Z,15
2017-03-08T15:38:16.996Z,15
2017-03-08T15:39:26.317Z,15
2017-03-08T15:40:35.791Z,15
2017-03-08T15:41:45.935Z,15
2017-03-08T15:42:55.673Z,15
2017-03-08T15:44:05.436Z,15
2017-03-08T15:45:14.749Z,15
2017-03-08T15:46:23.807Z,10
2017-03-08T15:47:33.548Z,10
2017-03-08T15:48:42.479Z,15
2017-03-08T15:49:52.229Z,15
2017-03-08T15:51:02.366Z,15
2017-03-08T15:52:11.693Z,15
2017-03-08T15:53:21.062Z,10
2017-03-08T15:54:30.789Z,10
2017-03-08T15:55:40.937Z,15
2017-03-08T15:56:50.260Z,15
2017-03-08T15:57:59.751Z,15
2017-03-08T15:59:09.092Z,15
2017-03-08T16:00:18.410Z,10
2017-03-08T16:01:28.563Z,15
2017-03-08T16:02:38.293Z,15
2017-03-08T16:03:47.614Z,15
2017-03-08T16:04:57.351Z,20
2017-03-08T16:06:07.103Z,20
2017-03-08T16:07:16.835Z,20
2017-03-08T16:08:25.748Z,25
2017-03-08T16:09:35.890Z,25
2017-03-08T16:10:44.824Z,25
2017-03-08T16:11:54.154Z,30
2017-03-08T16:13:03.897Z,30
2017-03-08T16:14:13.617Z,30
2017-03-08T16:15:22.591Z,35
2017-03-08T16:16:32.357Z,30
2017-03-08T16:17:42.077Z,30
2017-03-08T16:18:50.998Z,30
2017-03-08T16:19:59.918Z,25
2017-03-08T16:21:09.363Z,25
2017-03-08T16:22:18.695Z,25
2017-03-08T16:23:28.041Z,20
2017-03-08T16:24:37.369Z,20
2017-03-08T16:25:46.290Z,15
2017-03-08T16:26:55.708Z,15
2017-03-08T16:28:05.442Z,15
2017-03-08T16:29:14.364Z,15